sensor_id;sensor_type;location;lat;lon;timestamp;P1;durP1;ratioP1;P2;durP2;ratioP2
21206;SDS011;10761;48.532;8.026;2023-12-07T00:00:35;14.95;;;7.80;;
21206;SDS011;10761;48.532;8.026;2023-12-07T00:03:01;11.45;;;8.38;;
21206;SDS011;10761;48.532;8.026;2023-12-07T00:05:27;15.02;;;8.40;;
21206;SDS011;10761;48.532;8.026;2023-12-07T00:07:53;12.50;;;7.88;;
21206;SDS011;10761;48.532;8.026;2023-12-07T00:10:18;12.13;;;8.27;;
21206;SDS011;10761;48.532;8.026;2023-12-07T00:12:44;14.00;;;7.72;;
21206;SDS011;10761;48.532;8.026;2023-12-07T00:15:09;13.65;;;7.85;;
21206;SDS011;10761;48.532;8.026;2023-12-07T00:17:35;9.82;;;7.80;;
21206;SDS011;10761;48.532;8.026;2023-12-07T00:20:01;10.43;;;7.50;;
21206;SDS011;10761;48.532;8.026;2023-12-07T00:22:29;12.32;;;7.60;;
21206;SDS011;10761;48.532;8.026;2023-12-07T00:24:55;9.77;;;7.15;;
21206;SDS011;10761;48.532;8.026;2023-12-07T00:27:20;10.85;;;6.95;;
21206;SDS011;10761;48.532;8.026;2023-12-07T00:29:46;10.00;;;7.22;;
21206;SDS011;10761;48.532;8.026;2023-12-07T00:32:12;11.43;;;7.45;;
21206;SDS011;10761;48.532;8.026;2023-12-07T00:34:37;13.50;;;8.35;;
21206;SDS011;10761;48.532;8.026;2023-12-07T00:37:03;12.93;;;7.90;;
21206;SDS011;10761;48.532;8.026;2023-12-07T00:39:28;10.43;;;7.47;;
21206;SDS011;10761;48.532;8.026;2023-12-07T00:41:54;13.18;;;7.07;;
21206;SDS011;10761;48.532;8.026;2023-12-07T00:44:20;11.48;;;7.60;;
21206;SDS011;10761;48.532;8.026;2023-12-07T00:46:45;13.82;;;7.63;;
21206;SDS011;10761;48.532;8.026;2023-12-07T00:49:11;13.57;;;8.32;;
21206;SDS011;10761;48.532;8.026;2023-12-07T00:51:38;10.00;;;7.30;;
21206;SDS011;10761;48.532;8.026;2023-12-07T00:54:04;10.70;;;7.32;;
21206;SDS011;10761;48.532;8.026;2023-12-07T00:56:29;10.02;;;7.13;;
21206;SDS011;10761;48.532;8.026;2023-12-07T00:58:55;12.45;;;6.85;;
21206;SDS011;10761;48.532;8.026;2023-12-07T01:01:21;14.48;;;7.32;;
21206;SDS011;10761;48.532;8.026;2023-12-07T01:03:46;14.20;;;6.95;;
21206;SDS011;10761;48.532;8.026;2023-12-07T01:06:12;9.15;;;6.93;;
21206;SDS011;10761;48.532;8.026;2023-12-07T01:08:37;13.27;;;7.30;;
21206;SDS011;10761;48.532;8.026;2023-12-07T01:11:03;11.73;;;7.75;;
21206;SDS011;10761;48.532;8.026;2023-12-07T01:13:30;13.15;;;8.13;;
21206;SDS011;10761;48.532;8.026;2023-12-07T01:15:55;11.43;;;8.60;;
21206;SDS011;10761;48.532;8.026;2023-12-07T01:18:21;15.70;;;8.52;;
21206;SDS011;10761;48.532;8.026;2023-12-07T01:20:47;15.23;;;9.60;;
21206;SDS011;10761;48.532;8.026;2023-12-07T01:23:13;13.95;;;9.32;;
21206;SDS011;10761;48.532;8.026;2023-12-07T01:25:39;16.90;;;9.85;;
21206;SDS011;10761;48.532;8.026;2023-12-07T01:28:05;13.07;;;8.70;;
21206;SDS011;10761;48.532;8.026;2023-12-07T01:30:30;14.98;;;8.32;;
21206;SDS011;10761;48.532;8.026;2023-12-07T01:32:56;14.18;;;8.23;;
21206;SDS011;10761;48.532;8.026;2023-12-07T01:35:22;11.25;;;7.07;;
21206;SDS011;10761;48.532;8.026;2023-12-07T01:37:47;16.30;;;7.80;;
21206;SDS011;10761;48.532;8.026;2023-12-07T01:40:13;7.95;;;5.97;;
21206;SDS011;10761;48.532;8.026;2023-12-07T01:42:40;10.52;;;6.28;;
21206;SDS011;10761;48.532;8.026;2023-12-07T01:45:06;11.25;;;7.20;;
21206;SDS011;10761;48.532;8.026;2023-12-07T01:47:32;8.45;;;6.15;;
21206;SDS011;10761;48.532;8.026;2023-12-07T01:50:00;8.75;;;6.45;;
21206;SDS011;10761;48.532;8.026;2023-12-07T01:52:29;8.77;;;6.28;;
21206;SDS011;10761;48.532;8.026;2023-12-07T01:54:56;10.20;;;6.22;;
21206;SDS011;10761;48.532;8.026;2023-12-07T01:57:22;9.52;;;6.47;;
21206;SDS011;10761;48.532;8.026;2023-12-07T01:59:49;9.60;;;6.88;;
21206;SDS011;10761;48.532;8.026;2023-12-07T02:02:15;12.82;;;6.90;;
21206;SDS011;10761;48.532;8.026;2023-12-07T02:04:41;8.95;;;6.90;;
21206;SDS011;10761;48.532;8.026;2023-12-07T02:07:07;9.48;;;6.63;;
21206;SDS011;10761;48.532;8.026;2023-12-07T02:09:33;11.75;;;6.68;;
21206;SDS011;10761;48.532;8.026;2023-12-07T02:11:59;12.55;;;6.25;;
21206;SDS011;10761;48.532;8.026;2023-12-07T02:14:25;9.70;;;6.10;;
21206;SDS011;10761;48.532;8.026;2023-12-07T02:16:54;12.88;;;6.82;;
21206;SDS011;10761;48.532;8.026;2023-12-07T02:19:47;10.07;;;6.00;;
21206;SDS011;10761;48.532;8.026;2023-12-07T02:22:17;8.23;;;5.00;;
21206;SDS011;10761;48.532;8.026;2023-12-07T02:25:01;10.10;;;6.85;;
21206;SDS011;10761;48.532;8.026;2023-12-07T02:30:01;12.07;;;6.70;;
21206;SDS011;10761;48.532;8.026;2023-12-07T02:32:27;12.05;;;6.70;;
21206;SDS011;10761;48.532;8.026;2023-12-07T02:34:53;7.68;;;6.15;;
21206;SDS011;10761;48.532;8.026;2023-12-07T02:37:19;8.10;;;6.00;;
21206;SDS011;10761;48.532;8.026;2023-12-07T02:39:47;11.27;;;6.15;;
21206;SDS011;10761;48.532;8.026;2023-12-07T02:42:14;9.45;;;5.72;;
21206;SDS011;10761;48.532;8.026;2023-12-07T02:44:41;8.55;;;5.82;;
21206;SDS011;10761;48.532;8.026;2023-12-07T02:47:08;9.93;;;6.15;;
21206;SDS011;10761;48.532;8.026;2023-12-07T02:49:34;8.93;;;5.82;;
21206;SDS011;10761;48.532;8.026;2023-12-07T02:51:59;7.45;;;5.75;;
21206;SDS011;10761;48.532;8.026;2023-12-07T02:54:25;9.48;;;5.93;;
21206;SDS011;10761;48.532;8.026;2023-12-07T02:56:50;8.30;;;6.00;;
21206;SDS011;10761;48.532;8.026;2023-12-07T02:59:16;10.02;;;6.45;;
21206;SDS011;10761;48.532;8.026;2023-12-07T03:01:42;10.40;;;6.05;;
21206;SDS011;10761;48.532;8.026;2023-12-07T03:04:07;9.00;;;5.55;;
21206;SDS011;10761;48.532;8.026;2023-12-07T03:06:33;10.80;;;5.97;;
21206;SDS011;10761;48.532;8.026;2023-12-07T03:08:58;8.02;;;5.60;;
21206;SDS011;10761;48.532;8.026;2023-12-07T03:11:24;9.60;;;5.70;;
21206;SDS011;10761;48.532;8.026;2023-12-07T03:13:49;8.85;;;5.45;;
21206;SDS011;10761;48.532;8.026;2023-12-07T03:16:15;9.60;;;5.60;;
21206;SDS011;10761;48.532;8.026;2023-12-07T03:18:40;7.90;;;5.25;;
21206;SDS011;10761;48.532;8.026;2023-12-07T03:21:06;7.22;;;5.20;;
21206;SDS011;10761;48.532;8.026;2023-12-07T03:23:32;8.20;;;5.45;;
21206;SDS011;10761;48.532;8.026;2023-12-07T03:25:57;7.57;;;5.20;;
21206;SDS011;10761;48.532;8.026;2023-12-07T03:28:23;8.75;;;5.60;;
21206;SDS011;10761;48.532;8.026;2023-12-07T03:30:48;12.40;;;6.57;;
21206;SDS011;10761;48.532;8.026;2023-12-07T03:33:14;8.82;;;5.88;;
21206;SDS011;10761;48.532;8.026;2023-12-07T03:35:40;10.07;;;6.55;;
21206;SDS011;10761;48.532;8.026;2023-12-07T03:38:05;8.77;;;6.50;;
21206;SDS011;10761;48.532;8.026;2023-12-07T03:40:31;11.32;;;7.32;;
21206;SDS011;10761;48.532;8.026;2023-12-07T03:42:57;11.52;;;7.00;;
21206;SDS011;10761;48.532;8.026;2023-12-07T03:45:23;8.57;;;6.10;;
21206;SDS011;10761;48.532;8.026;2023-12-07T03:47:49;11.00;;;6.93;;
21206;SDS011;10761;48.532;8.026;2023-12-07T03:50:14;8.38;;;6.47;;
21206;SDS011;10761;48.532;8.026;2023-12-07T03:52:40;10.60;;;5.88;;
21206;SDS011;10761;48.532;8.026;2023-12-07T03:55:06;7.10;;;5.07;;
21206;SDS011;10761;48.532;8.026;2023-12-07T03:57:32;8.90;;;4.88;;
21206;SDS011;10761;48.532;8.026;2023-12-07T03:59:57;5.63;;;4.60;;
21206;SDS011;10761;48.532;8.026;2023-12-07T04:02:23;5.60;;;4.28;;
21206;SDS011;10761;48.532;8.026;2023-12-07T04:04:49;10.57;;;4.97;;
21206;SDS011;10761;48.532;8.026;2023-12-07T04:07:14;6.50;;;4.88;;
21206;SDS011;10761;48.532;8.026;2023-12-07T04:09:40;6.80;;;4.10;;
21206;SDS011;10761;48.532;8.026;2023-12-07T04:12:06;9.35;;;4.60;;
21206;SDS011;10761;48.532;8.026;2023-12-07T04:14:32;6.22;;;3.90;;
21206;SDS011;10761;48.532;8.026;2023-12-07T04:16:57;7.15;;;4.40;;
21206;SDS011;10761;48.532;8.026;2023-12-07T04:19:23;7.93;;;4.68;;
21206;SDS011;10761;48.532;8.026;2023-12-07T04:21:48;5.10;;;3.53;;
21206;SDS011;10761;48.532;8.026;2023-12-07T04:24:14;4.53;;;3.30;;
21206;SDS011;10761;48.532;8.026;2023-12-07T04:26:39;6.35;;;3.90;;
21206;SDS011;10761;48.532;8.026;2023-12-07T04:29:05;4.13;;;3.60;;
21206;SDS011;10761;48.532;8.026;2023-12-07T04:31:30;5.50;;;3.83;;
21206;SDS011;10761;48.532;8.026;2023-12-07T04:33:56;5.13;;;3.60;;
21206;SDS011;10761;48.532;8.026;2023-12-07T04:36:22;5.93;;;3.85;;
21206;SDS011;10761;48.532;8.026;2023-12-07T04:38:47;7.72;;;3.85;;
21206;SDS011;10761;48.532;8.026;2023-12-07T04:41:13;6.18;;;4.28;;
21206;SDS011;10761;48.532;8.026;2023-12-07T04:43:38;7.45;;;4.32;;
21206;SDS011;10761;48.532;8.026;2023-12-07T04:46:04;6.65;;;4.22;;
21206;SDS011;10761;48.532;8.026;2023-12-07T04:48:30;8.98;;;5.13;;
21206;SDS011;10761;48.532;8.026;2023-12-07T04:50:56;10.50;;;5.38;;
21206;SDS011;10761;48.532;8.026;2023-12-07T04:53:21;8.10;;;5.50;;
21206;SDS011;10761;48.532;8.026;2023-12-07T04:55:47;8.52;;;5.20;;
21206;SDS011;10761;48.532;8.026;2023-12-07T04:58:15;7.43;;;4.68;;
21206;SDS011;10761;48.532;8.026;2023-12-07T05:00:40;6.28;;;4.60;;
21206;SDS011;10761;48.532;8.026;2023-12-07T05:03:06;6.72;;;4.82;;
21206;SDS011;10761;48.532;8.026;2023-12-07T05:05:32;7.03;;;4.63;;
21206;SDS011;10761;48.532;8.026;2023-12-07T05:07:57;8.55;;;4.70;;
21206;SDS011;10761;48.532;8.026;2023-12-07T05:10:23;6.25;;;4.32;;
21206;SDS011;10761;48.532;8.026;2023-12-07T05:12:48;6.40;;;4.00;;
21206;SDS011;10761;48.532;8.026;2023-12-07T05:15:15;5.80;;;4.00;;
21206;SDS011;10761;48.532;8.026;2023-12-07T05:17:40;6.45;;;3.22;;
21206;SDS011;10761;48.532;8.026;2023-12-07T05:20:06;4.85;;;3.50;;
21206;SDS011;10761;48.532;8.026;2023-12-07T05:22:32;6.65;;;3.92;;
21206;SDS011;10761;48.532;8.026;2023-12-07T05:24:58;5.28;;;3.70;;
21206;SDS011;10761;48.532;8.026;2023-12-07T05:27:23;7.30;;;4.13;;
21206;SDS011;10761;48.532;8.026;2023-12-07T05:29:49;7.78;;;4.13;;
21206;SDS011;10761;48.532;8.026;2023-12-07T05:32:15;7.85;;;4.03;;
21206;SDS011;10761;48.532;8.026;2023-12-07T05:34:40;5.60;;;4.18;;
21206;SDS011;10761;48.532;8.026;2023-12-07T05:37:06;6.85;;;5.10;;
21206;SDS011;10761;48.532;8.026;2023-12-07T05:39:33;8.40;;;5.78;;
21206;SDS011;10761;48.532;8.026;2023-12-07T05:41:58;7.72;;;5.45;;
21206;SDS011;10761;48.532;8.026;2023-12-07T05:44:24;9.07;;;5.75;;
21206;SDS011;10761;48.532;8.026;2023-12-07T05:46:49;7.47;;;5.57;;
21206;SDS011;10761;48.532;8.026;2023-12-07T05:49:15;7.15;;;5.30;;
21206;SDS011;10761;48.532;8.026;2023-12-07T05:51:41;9.15;;;5.07;;
21206;SDS011;10761;48.532;8.026;2023-12-07T05:54:07;8.02;;;5.40;;
21206;SDS011;10761;48.532;8.026;2023-12-07T05:56:32;6.93;;;5.85;;
21206;SDS011;10761;48.532;8.026;2023-12-07T05:58:58;12.80;;;7.05;;
21206;SDS011;10761;48.532;8.026;2023-12-07T06:01:23;11.63;;;6.40;;
21206;SDS011;10761;48.532;8.026;2023-12-07T06:03:49;10.13;;;6.55;;
21206;SDS011;10761;48.532;8.026;2023-12-07T06:06:15;11.80;;;7.00;;
21206;SDS011;10761;48.532;8.026;2023-12-07T06:08:40;9.30;;;6.65;;
21206;SDS011;10761;48.532;8.026;2023-12-07T06:11:07;6.75;;;4.90;;
21206;SDS011;10761;48.532;8.026;2023-12-07T06:13:32;8.82;;;5.32;;
21206;SDS011;10761;48.532;8.026;2023-12-07T06:15:58;8.88;;;4.68;;
21206;SDS011;10761;48.532;8.026;2023-12-07T06:18:24;5.63;;;4.07;;
21206;SDS011;10761;48.532;8.026;2023-12-07T06:20:50;10.18;;;5.38;;
21206;SDS011;10761;48.532;8.026;2023-12-07T06:23:15;9.88;;;4.70;;
21206;SDS011;10761;48.532;8.026;2023-12-07T06:25:41;8.25;;;5.50;;
21206;SDS011;10761;48.532;8.026;2023-12-07T06:28:07;7.75;;;5.38;;
21206;SDS011;10761;48.532;8.026;2023-12-07T06:30:33;7.35;;;4.65;;
21206;SDS011;10761;48.532;8.026;2023-12-07T06:32:59;7.72;;;4.80;;
21206;SDS011;10761;48.532;8.026;2023-12-07T06:35:25;7.85;;;4.78;;
21206;SDS011;10761;48.532;8.026;2023-12-07T06:37:51;8.30;;;6.32;;
21206;SDS011;10761;48.532;8.026;2023-12-07T06:40:16;10.05;;;6.47;;
21206;SDS011;10761;48.532;8.026;2023-12-07T06:42:42;11.68;;;6.07;;
21206;SDS011;10761;48.532;8.026;2023-12-07T06:45:08;10.35;;;6.15;;
21206;SDS011;10761;48.532;8.026;2023-12-07T06:47:36;12.90;;;7.90;;
21206;SDS011;10761;48.532;8.026;2023-12-07T06:50:03;11.90;;;8.20;;
21206;SDS011;10761;48.532;8.026;2023-12-07T06:52:29;14.38;;;10.02;;
21206;SDS011;10761;48.532;8.026;2023-12-07T06:54:55;17.02;;;10.80;;
21206;SDS011;10761;48.532;8.026;2023-12-07T06:57:21;19.63;;;12.77;;
21206;SDS011;10761;48.532;8.026;2023-12-07T06:59:46;20.63;;;13.38;;
21206;SDS011;10761;48.532;8.026;2023-12-07T07:02:12;21.55;;;13.45;;
21206;SDS011;10761;48.532;8.026;2023-12-07T07:04:38;22.00;;;15.65;;
21206;SDS011;10761;48.532;8.026;2023-12-07T07:07:04;25.45;;;16.00;;
21206;SDS011;10761;48.532;8.026;2023-12-07T07:09:29;27.00;;;15.30;;
21206;SDS011;10761;48.532;8.026;2023-12-07T07:11:55;22.02;;;15.35;;
21206;SDS011;10761;48.532;8.026;2023-12-07T07:14:21;22.77;;;16.30;;
21206;SDS011;10761;48.532;8.026;2023-12-07T07:16:46;22.63;;;16.13;;
21206;SDS011;10761;48.532;8.026;2023-12-07T07:19:13;22.63;;;15.57;;
21206;SDS011;10761;48.532;8.026;2023-12-07T07:21:38;25.67;;;15.15;;
21206;SDS011;10761;48.532;8.026;2023-12-07T07:24:04;24.85;;;16.30;;
21206;SDS011;10761;48.532;8.026;2023-12-07T07:26:31;25.08;;;15.52;;
21206;SDS011;10761;48.532;8.026;2023-12-07T07:28:57;24.60;;;16.38;;
21206;SDS011;10761;48.532;8.026;2023-12-07T07:31:22;27.67;;;15.15;;
21206;SDS011;10761;48.532;8.026;2023-12-07T07:33:48;25.55;;;15.65;;
21206;SDS011;10761;48.532;8.026;2023-12-07T07:36:14;34.70;;;19.05;;
21206;SDS011;10761;48.532;8.026;2023-12-07T07:38:40;29.00;;;17.13;;
21206;SDS011;10761;48.532;8.026;2023-12-07T07:41:06;27.23;;;16.42;;
21206;SDS011;10761;48.532;8.026;2023-12-07T07:43:31;24.77;;;16.95;;
21206;SDS011;10761;48.532;8.026;2023-12-07T07:45:59;28.25;;;17.00;;
21206;SDS011;10761;48.532;8.026;2023-12-07T07:48:25;22.27;;;14.52;;
21206;SDS011;10761;48.532;8.026;2023-12-07T07:50:51;19.42;;;11.27;;
21206;SDS011;10761;48.532;8.026;2023-12-07T07:53:16;14.40;;;10.25;;
21206;SDS011;10761;48.532;8.026;2023-12-07T07:55:42;16.63;;;10.07;;
21206;SDS011;10761;48.532;8.026;2023-12-07T07:58:08;17.65;;;11.65;;
21206;SDS011;10761;48.532;8.026;2023-12-07T08:00:33;21.65;;;14.77;;
21206;SDS011;10761;48.532;8.026;2023-12-07T08:02:59;18.88;;;12.55;;
21206;SDS011;10761;48.532;8.026;2023-12-07T08:05:25;13.88;;;8.43;;
21206;SDS011;10761;48.532;8.026;2023-12-07T08:07:51;10.18;;;7.75;;
21206;SDS011;10761;48.532;8.026;2023-12-07T08:10:16;12.73;;;7.55;;
21206;SDS011;10761;48.532;8.026;2023-12-07T08:12:42;9.18;;;6.30;;
21206;SDS011;10761;48.532;8.026;2023-12-07T08:15:11;11.07;;;7.13;;
21206;SDS011;10761;48.532;8.026;2023-12-07T08:17:40;12.25;;;8.73;;
21206;SDS011;10761;48.532;8.026;2023-12-07T08:20:07;12.88;;;8.85;;
21206;SDS011;10761;48.532;8.026;2023-12-07T08:22:35;16.80;;;11.65;;
21206;SDS011;10761;48.532;8.026;2023-12-07T08:25:01;15.90;;;11.38;;
21206;SDS011;10761;48.532;8.026;2023-12-07T08:27:27;18.23;;;12.20;;
21206;SDS011;10761;48.532;8.026;2023-12-07T08:29:53;16.17;;;10.32;;
21206;SDS011;10761;48.532;8.026;2023-12-07T08:32:18;10.70;;;7.68;;
21206;SDS011;10761;48.532;8.026;2023-12-07T08:34:44;14.02;;;8.25;;
21206;SDS011;10761;48.532;8.026;2023-12-07T08:37:11;12.45;;;8.30;;
21206;SDS011;10761;48.532;8.026;2023-12-07T08:39:36;11.30;;;7.22;;
21206;SDS011;10761;48.532;8.026;2023-12-07T08:42:03;10.40;;;6.65;;
21206;SDS011;10761;48.532;8.026;2023-12-07T08:44:28;11.38;;;6.93;;
21206;SDS011;10761;48.532;8.026;2023-12-07T08:46:54;10.25;;;6.55;;
21206;SDS011;10761;48.532;8.026;2023-12-07T08:49:19;11.50;;;6.80;;
21206;SDS011;10761;48.532;8.026;2023-12-07T08:51:45;9.80;;;6.43;;
21206;SDS011;10761;48.532;8.026;2023-12-07T08:54:11;15.65;;;9.15;;
21206;SDS011;10761;48.532;8.026;2023-12-07T08:56:36;9.50;;;6.25;;
21206;SDS011;10761;48.532;8.026;2023-12-07T08:59:02;9.57;;;6.63;;
21206;SDS011;10761;48.532;8.026;2023-12-07T09:01:28;9.38;;;6.90;;
21206;SDS011;10761;48.532;8.026;2023-12-07T09:03:55;12.43;;;5.63;;
21206;SDS011;10761;48.532;8.026;2023-12-07T09:06:21;8.98;;;5.45;;
21206;SDS011;10761;48.532;8.026;2023-12-07T09:08:46;7.53;;;6.18;;
21206;SDS011;10761;48.532;8.026;2023-12-07T09:11:12;9.02;;;5.78;;
21206;SDS011;10761;48.532;8.026;2023-12-07T09:13:37;8.68;;;5.82;;
21206;SDS011;10761;48.532;8.026;2023-12-07T09:16:04;8.43;;;5.50;;
21206;SDS011;10761;48.532;8.026;2023-12-07T09:18:29;8.40;;;6.50;;
21206;SDS011;10761;48.532;8.026;2023-12-07T09:20:55;12.70;;;8.55;;
21206;SDS011;10761;48.532;8.026;2023-12-07T09:23:21;11.35;;;8.75;;
21206;SDS011;10761;48.532;8.026;2023-12-07T09:25:46;14.10;;;9.48;;
21206;SDS011;10761;48.532;8.026;2023-12-07T09:28:12;12.70;;;10.18;;
21206;SDS011;10761;48.532;8.026;2023-12-07T09:30:37;15.38;;;11.15;;
21206;SDS011;10761;48.532;8.026;2023-12-07T09:33:03;25.02;;;16.70;;
21206;SDS011;10761;48.532;8.026;2023-12-07T09:35:29;19.83;;;15.20;;
21206;SDS011;10761;48.532;8.026;2023-12-07T09:37:55;31.13;;;15.93;;
21206;SDS011;10761;48.532;8.026;2023-12-07T09:40:21;99.97;;;23.70;;
21206;SDS011;10761;48.532;8.026;2023-12-07T09:42:49;89.18;;;26.35;;
21206;SDS011;10761;48.532;8.026;2023-12-07T09:45:15;64.45;;;24.63;;
21206;SDS011;10761;48.532;8.026;2023-12-07T09:47:43;43.20;;;23.02;;
21206;SDS011;10761;48.532;8.026;2023-12-07T09:50:16;48.88;;;20.88;;
21206;SDS011;10761;48.532;8.026;2023-12-07T09:52:43;49.38;;;21.27;;
21206;SDS011;10761;48.532;8.026;2023-12-07T09:55:09;52.83;;;20.83;;
21206;SDS011;10761;48.532;8.026;2023-12-07T09:57:35;82.95;;;20.05;;
21206;SDS011;10761;48.532;8.026;2023-12-07T10:00:03;44.75;;;17.60;;
21206;SDS011;10761;48.532;8.026;2023-12-07T10:02:29;88.00;;;16.80;;
21206;SDS011;10761;48.532;8.026;2023-12-07T10:05:05;56.50;;;17.05;;
21206;SDS011;10761;48.532;8.026;2023-12-07T10:07:41;46.70;;;14.95;;
21206;SDS011;10761;48.532;8.026;2023-12-07T10:10:14;158.70;;;14.57;;
21206;SDS011;10761;48.532;8.026;2023-12-07T10:13:14;70.30;;;15.07;;
21206;SDS011;10761;48.532;8.026;2023-12-07T10:15:33;59.55;;;15.73;;
21206;SDS011;10761;48.532;8.026;2023-12-07T10:17:58;119.13;;;16.50;;
21206;SDS011;10761;48.532;8.026;2023-12-07T10:20:26;140.65;;;17.17;;
21206;SDS011;10761;48.532;8.026;2023-12-07T10:23:03;406.88;;;20.63;;
21206;SDS011;10761;48.532;8.026;2023-12-07T10:25:33;146.77;;;17.40;;
21206;SDS011;10761;48.532;8.026;2023-12-07T10:28:01;167.65;;;18.35;;
21206;SDS011;10761;48.532;8.026;2023-12-07T10:30:31;179.18;;;16.48;;
21206;SDS011;10761;48.532;8.026;2023-12-07T10:32:57;223.68;;;17.48;;
21206;SDS011;10761;48.532;8.026;2023-12-07T10:35:23;301.95;;;18.48;;
21206;SDS011;10761;48.532;8.026;2023-12-07T10:37:48;112.88;;;15.48;;
21206;SDS011;10761;48.532;8.026;2023-12-07T10:40:14;183.77;;;17.98;;
21206;SDS011;10761;48.532;8.026;2023-12-07T10:42:40;191.30;;;18.20;;
21206;SDS011;10761;48.532;8.026;2023-12-07T10:45:07;142.18;;;17.05;;
21206;SDS011;10761;48.532;8.026;2023-12-07T10:47:37;68.25;;;14.05;;
21206;SDS011;10761;48.532;8.026;2023-12-07T10:50:07;185.07;;;16.05;;
21206;SDS011;10761;48.532;8.026;2023-12-07T10:52:51;107.40;;;14.80;;
21206;SDS011;10761;48.532;8.026;2023-12-07T10:55:27;70.18;;;15.13;;
21206;SDS011;10761;48.532;8.026;2023-12-07T10:57:55;174.80;;;18.00;;
21206;SDS011;10761;48.532;8.026;2023-12-07T11:00:23;108.05;;;17.90;;
21206;SDS011;10761;48.532;8.026;2023-12-07T11:02:52;83.28;;;17.95;;
21206;SDS011;10761;48.532;8.026;2023-12-07T11:05:18;211.55;;;17.35;;
21206;SDS011;10761;48.532;8.026;2023-12-07T11:07:55;114.35;;;16.10;;
21206;SDS011;10761;48.532;8.026;2023-12-07T11:13:29;95.95;;;15.63;;
21206;SDS011;10761;48.532;8.026;2023-12-07T11:16:00;84.82;;;15.40;;
21206;SDS011;10761;48.532;8.026;2023-12-07T11:18:26;96.57;;;14.35;;
21206;SDS011;10761;48.532;8.026;2023-12-07T11:20:52;126.30;;;15.02;;
21206;SDS011;10761;48.532;8.026;2023-12-07T11:23:18;221.50;;;14.93;;
21206;SDS011;10761;48.532;8.026;2023-12-07T11:25:45;126.65;;;16.00;;
21206;SDS011;10761;48.532;8.026;2023-12-07T11:28:12;151.75;;;15.63;;
21206;SDS011;10761;48.532;8.026;2023-12-07T11:30:38;78.13;;;14.35;;
21206;SDS011;10761;48.532;8.026;2023-12-07T11:33:08;118.05;;;16.13;;
21206;SDS011;10761;48.532;8.026;2023-12-07T11:36:02;100.60;;;15.10;;
21206;SDS011;10761;48.532;8.026;2023-12-07T11:38:26;151.63;;;15.18;;
21206;SDS011;10761;48.532;8.026;2023-12-07T11:40:52;78.97;;;13.25;;
21206;SDS011;10761;48.532;8.026;2023-12-07T11:45:58;50.55;;;13.02;;
21206;SDS011;10761;48.532;8.026;2023-12-07T11:48:24;65.70;;;13.75;;
21206;SDS011;10761;48.532;8.026;2023-12-07T11:50:53;61.00;;;15.32;;
21206;SDS011;10761;48.532;8.026;2023-12-07T11:53:21;54.42;;;14.70;;
21206;SDS011;10761;48.532;8.026;2023-12-07T11:55:48;49.05;;;14.20;;
21206;SDS011;10761;48.532;8.026;2023-12-07T11:58:14;54.13;;;16.42;;
21206;SDS011;10761;48.532;8.026;2023-12-07T12:00:40;51.95;;;15.55;;
21206;SDS011;10761;48.532;8.026;2023-12-07T12:03:06;106.05;;;14.57;;
21206;SDS011;10761;48.532;8.026;2023-12-07T12:05:32;79.70;;;14.57;;
21206;SDS011;10761;48.532;8.026;2023-12-07T12:07:57;93.60;;;15.20;;
21206;SDS011;10761;48.532;8.026;2023-12-07T12:10:23;109.32;;;15.05;;
21206;SDS011;10761;48.532;8.026;2023-12-07T12:12:51;112.03;;;14.73;;
21206;SDS011;10761;48.532;8.026;2023-12-07T12:15:18;101.45;;;14.68;;
21206;SDS011;10761;48.532;8.026;2023-12-07T12:17:45;78.80;;;14.68;;
21206;SDS011;10761;48.532;8.026;2023-12-07T12:20:11;138.10;;;15.43;;
21206;SDS011;10761;48.532;8.026;2023-12-07T12:22:42;101.10;;;14.97;;
21206;SDS011;10761;48.532;8.026;2023-12-07T12:25:08;93.05;;;14.88;;
21206;SDS011;10761;48.532;8.026;2023-12-07T12:27:34;28.00;;;13.57;;
21206;SDS011;10761;48.532;8.026;2023-12-07T12:30:00;82.22;;;13.73;;
21206;SDS011;10761;48.532;8.026;2023-12-07T12:32:27;56.78;;;14.48;;
21206;SDS011;10761;48.532;8.026;2023-12-07T12:34:52;94.05;;;15.82;;
21206;SDS011;10761;48.532;8.026;2023-12-07T12:37:18;155.20;;;17.42;;
21206;SDS011;10761;48.532;8.026;2023-12-07T12:39:44;125.05;;;16.15;;
21206;SDS011;10761;48.532;8.026;2023-12-07T12:42:09;101.38;;;15.65;;
21206;SDS011;10761;48.532;8.026;2023-12-07T12:44:36;78.72;;;15.57;;
21206;SDS011;10761;48.532;8.026;2023-12-07T12:47:06;112.00;;;17.60;;
21206;SDS011;10761;48.532;8.026;2023-12-07T12:49:36;87.13;;;17.98;;
21206;SDS011;10761;48.532;8.026;2023-12-07T12:52:02;105.30;;;20.83;;
21206;SDS011;10761;48.532;8.026;2023-12-07T12:54:32;188.00;;;23.73;;
21206;SDS011;10761;48.532;8.026;2023-12-07T12:56:58;45.33;;;18.23;;
21206;SDS011;10761;48.532;8.026;2023-12-07T12:59:24;59.45;;;17.10;;
21206;SDS011;10761;48.532;8.026;2023-12-07T13:01:50;241.75;;;21.75;;
21206;SDS011;10761;48.532;8.026;2023-12-07T13:04:16;177.18;;;20.25;;
21206;SDS011;10761;48.532;8.026;2023-12-07T13:06:41;48.33;;;20.65;;
21206;SDS011;10761;48.532;8.026;2023-12-07T13:09:07;93.20;;;19.52;;
21206;SDS011;10761;48.532;8.026;2023-12-07T13:11:32;135.73;;;19.88;;
21206;SDS011;10761;48.532;8.026;2023-12-07T13:13:58;126.38;;;19.88;;
21206;SDS011;10761;48.532;8.026;2023-12-07T13:16:24;117.80;;;19.92;;
21206;SDS011;10761;48.532;8.026;2023-12-07T13:18:49;173.98;;;21.60;;
21206;SDS011;10761;48.532;8.026;2023-12-07T13:21:15;202.57;;;23.63;;
21206;SDS011;10761;48.532;8.026;2023-12-07T13:23:41;64.05;;;20.23;;
21206;SDS011;10761;48.532;8.026;2023-12-07T13:26:07;119.28;;;21.70;;
21206;SDS011;10761;48.532;8.026;2023-12-07T13:28:32;188.52;;;21.00;;
21206;SDS011;10761;48.532;8.026;2023-12-07T13:30:58;144.10;;;19.15;;
21206;SDS011;10761;48.532;8.026;2023-12-07T13:33:24;117.63;;;19.75;;
21206;SDS011;10761;48.532;8.026;2023-12-07T13:35:50;124.25;;;20.80;;
21206;SDS011;10761;48.532;8.026;2023-12-07T13:38:17;57.80;;;17.58;;
21206;SDS011;10761;48.532;8.026;2023-12-07T13:40:44;36.10;;;17.05;;
21206;SDS011;10761;48.532;8.026;2023-12-07T13:43:11;44.50;;;17.45;;
21206;SDS011;10761;48.532;8.026;2023-12-07T13:45:37;86.07;;;18.33;;
21206;SDS011;10761;48.532;8.026;2023-12-07T13:48:03;91.95;;;19.73;;
21206;SDS011;10761;48.532;8.026;2023-12-07T13:50:29;51.85;;;17.35;;
21206;SDS011;10761;48.532;8.026;2023-12-07T13:52:54;95.38;;;27.08;;
21206;SDS011;10761;48.532;8.026;2023-12-07T13:55:20;53.45;;;18.98;;
21206;SDS011;10761;48.532;8.026;2023-12-07T13:57:46;84.85;;;31.15;;
21206;SDS011;10761;48.532;8.026;2023-12-07T14:00:12;71.72;;;22.88;;
21206;SDS011;10761;48.532;8.026;2023-12-07T14:02:40;127.07;;;42.55;;
21206;SDS011;10761;48.532;8.026;2023-12-07T14:05:06;88.13;;;20.63;;
21206;SDS011;10761;48.532;8.026;2023-12-07T14:07:32;52.88;;;18.33;;
21206;SDS011;10761;48.532;8.026;2023-12-07T14:09:58;60.67;;;17.80;;
21206;SDS011;10761;48.532;8.026;2023-12-07T14:12:23;45.15;;;19.55;;
21206;SDS011;10761;48.532;8.026;2023-12-07T14:14:50;71.95;;;18.58;;
21206;SDS011;10761;48.532;8.026;2023-12-07T14:17:16;59.55;;;18.83;;
21206;SDS011;10761;48.532;8.026;2023-12-07T14:19:43;48.78;;;22.13;;
21206;SDS011;10761;48.532;8.026;2023-12-07T14:22:09;62.78;;;19.98;;
21206;SDS011;10761;48.532;8.026;2023-12-07T14:24:35;69.20;;;19.70;;
21206;SDS011;10761;48.532;8.026;2023-12-07T14:27:02;54.22;;;20.52;;
21206;SDS011;10761;48.532;8.026;2023-12-07T14:29:29;55.22;;;20.25;;
21206;SDS011;10761;48.532;8.026;2023-12-07T14:31:54;76.53;;;20.70;;
21206;SDS011;10761;48.532;8.026;2023-12-07T14:34:20;68.88;;;21.40;;